Time;durP1;ratioP1;P1;durP2;ratioP2;P2;SDS_P1;SDS_P2;PMS_P1;PMS_P2;Temp;Humidity;BMP_temperature;BMP_pressure;BME280_temperature;BME280_humidity;BME280_pressure;Samples;Min_cycle;Max_cycle;Signal;HPM_P1;HPM_P2
2022/07/29 00:00:45;;;;;;;7.43;6.63;;;19.00;5.90;;;;;;2617331;54;20386;-78
2022/07/29 00:06:33;;;;;;;6.37;5.80;;;18.90;6.50;;;;;;2617428;54;20922;-79
2022/07/29 00:12:22;;;;;;;6.13;5.63;;;18.80;7.30;;;;;;2617417;54;20153;-78
2022/07/29 00:18:09;;;;;;;12.57;6.00;;;18.80;8.30;;;;;;2617534;54;20947;-79
2022/07/29 00:23:56;;;;;;;8.13;5.80;;;18.70;8.50;;;;;;2617638;54;20191;-79
2022/07/29 00:29:44;;;;;;;6.83;6.23;;;18.60;8.60;;;;;;2617500;54;20182;-79
2022/07/29 00:41:37;;;;;;;17.00;5.80;;;18.50;10.20;;;;;;2617208;54;20403;-79
2022/07/29 00:47:24;;;;;;;6.40;5.80;;;18.50;11.30;;;;;;2616856;54;20153;-79
2022/07/29 00:53:12;;;;;;;5.80;5.40;;;18.40;12.20;;;;;;2616810;39;20540;-79
2022/07/29 00:59:00;;;;;;;6.67;5.93;;;18.40;12.40;;;;;;2616919;54;20375;-79
2022/07/29 01:04:48;;;;;;;5.93;5.13;;;18.20;15.00;;;;;;2617392;54;20425;-79
2022/07/29 01:10:38;;;;;;;6.57;5.97;;;18.20;14.70;;;;;;2617212;54;20418;-79
2022/07/29 01:36:10;;;;;;;6.70;6.00;;;17.90;18.40;;;;;;2617334;54;20404;-78
2022/07/29 01:42:02;;;;;;;12.00;6.13;;;18.00;17.90;;;;;;2616623;54;20421;-78
2022/07/29 01:54:16;;;;;;;6.80;5.90;;;17.80;20.10;;;;;;2616363;54;20411;-79
2022/07/29 02:00:05;;;;;;;7.27;6.40;;;17.80;21.10;;;;;;2617439;54;20460;-79
2022/07/29 02:05:55;;;;;;;6.00;5.43;;;17.60;23.20;;;;;;2617306;54;20378;-79
2022/07/29 02:11:49;;;;;;;6.30;5.80;;;17.60;24.60;;;;;;2617302;54;20972;-79
2022/07/29 02:17:45;;;;;;;8.57;6.67;;;17.60;25.50;;;;;;2617569;54;20380;-79
2022/07/29 02:23:35;;;;;;;6.13;5.53;;;17.50;27.90;;;;;;2617776;54;20379;-79
2022/07/29 02:29:25;;;;;;;9.83;5.93;;;17.50;28.00;;;;;;2617768;54;20594;-79
2022/07/29 02:35:14;;;;;;;7.00;5.90;;;17.30;30.20;;;;;;2617856;54;20644;-77
2022/07/29 02:47:34;;;;;;;6.23;5.30;;;17.20;33.70;;;;;;2617477;54;20980;-77
2022/07/29 02:53:24;;;;;;;13.40;5.20;;;17.20;34.30;;;;;;2617548;54;20407;-77
2022/07/29 02:59:13;;;;;;;6.27;5.70;;;17.20;37.70;;;;;;2616723;54;20487;-76
2022/07/29 03:01:43;;;;;;;13.70;5.83;;;17.10;38.20;;;;;;2616633;46;21460;-76
2022/07/29 03:04:11;;;;;;;6.30;5.47;;;17.10;39.20;;;;;;2615606;54;20438;-76
2022/07/29 03:06:38;;;;;;;5.80;5.30;;;17.20;41.40;;;;;;2616707;39;20593;-76
2022/07/29 03:09:05;;;;;;;5.73;5.10;;;17.20;38.70;;;;;;2617715;39;20963;-76
2022/07/29 03:14:54;;;;;;;7.43;6.73;;;17.20;39.50;;;;;;2617654;54;20525;-77
2022/07/29 03:20:42;;;;;;;6.10;5.60;;;17.20;41.60;;;;;;2617636;39;20754;-77
2022/07/29 03:26:29;;;;;;;5.53;5.23;;;17.20;41.70;;;;;;2617370;54;20386;-77
2022/07/29 03:32:16;;;;;;;6.33;5.80;;;17.30;40.60;;;;;;2617732;54;20379;-77
2022/07/29 03:38:04;;;;;;;6.13;5.63;;;17.20;43.00;;;;;;2617576;54;20140;-76
2022/07/29 03:43:52;;;;;;;5.20;4.80;;;17.10;45.40;;;;;;2617187;54;21522;-77
2022/07/29 03:49:40;;;;;;;8.03;6.00;;;17.20;44.50;;;;;;2618088;54;21023;-77
2022/07/29 03:55:32;;;;;;;5.93;5.43;;;17.20;44.00;;;;;;2618360;54;20386;-77
2022/07/29 04:01:22;;;;;;;7.17;5.20;;;17.30;41.60;;;;;;2618523;54;20492;-77
2022/07/29 04:04:39;;;;;;;6.77;5.80;;;17.30;42.40;;;;;;2618722;54;20382;-78
2022/07/29 04:07:05;;;;;;;5.67;5.17;;;17.20;44.20;;;;;;2618218;54;20402;-76
2022/07/29 04:12:52;;;;;;;6.13;5.53;;;17.30;45.10;;;;;;2618299;54;20394;-77
2022/07/29 04:18:40;;;;;;;7.50;5.50;;;17.10;49.90;;;;;;2618110;54;20182;-77
2022/07/29 04:24:28;;;;;;;10.67;5.07;;;17.20;50.00;;;;;;2618221;39;20626;-77
2022/07/29 04:30:15;;;;;;;6.23;5.73;;;17.00;57.00;;;;;;2616606;54;20378;-76
2022/07/29 04:36:03;;;;;;;8.67;6.53;;;16.80;75.10;;;;;;2617286;54;20965;-76
2022/07/29 04:41:51;;;;;;;5.20;4.53;;;16.60;91.10;;;;;;2617004;54;20393;-75
2022/07/29 04:47:38;;;;;;;5.50;5.00;;;16.20;99.90;;;;;;2617108;54;20252;-77
2022/07/29 04:53:26;;;;;;;5.93;4.80;;;16.10;99.90;;;;;;2616212;54;20116;-76
2022/07/29 04:59:13;;;;;;;11.33;5.20;;;16.10;99.90;;;;;;2616987;54;20803;-76
2022/07/29 05:05:01;;;;;;;5.30;4.80;;;16.20;99.90;;;;;;2616671;54;20248;-77
2022/07/29 05:10:48;;;;;;;6.33;5.57;;;16.30;99.90;;;;;;2617200;54;20170;-76
2022/07/29 05:16:36;;;;;;;10.40;5.40;;;16.30;99.90;;;;;;2617229;31;20321;-77
2022/07/29 05:25:46;;;;;;;5.67;5.10;;;16.50;99.90;;;;;;2617675;54;20501;-76
2022/07/29 05:31:33;;;;;;;7.87;6.53;;;16.80;96.50;;;;;;2616483;54;20172;-76
2022/07/29 05:37:21;;;;;;;6.90;5.17;;;16.80;95.20;;;;;;2616631;54;20124;-77
2022/07/29 05:43:09;;;;;;;7.47;6.77;;;16.90;93.20;;;;;;2617070;54;20141;-76
2022/07/29 05:48:56;;;;;;;7.63;6.93;;;16.90;95.30;;;;;;2616719;54;20138;-76
2022/07/29 05:54:43;;;;;;;13.67;5.87;;;16.60;99.90;;;;;;2616736;54;20123;-76
2022/07/29 06:00:31;;;;;;;10.00;5.30;;;16.30;99.90;;;;;;2616785;54;20389;-75
2022/07/29 06:06:18;;;;;;;6.53;5.57;;;16.30;99.90;;;;;;2616824;54;20152;-77
2022/07/29 06:12:05;;;;;;;5.83;5.33;;;16.40;99.90;;;;;;2616375;54;20143;-76
2022/07/29 06:21:14;;;;;;;5.20;4.80;;;16.50;99.90;;;;;;2616430;54;20427;-77
2022/07/29 06:27:02;;;;;;;5.80;5.03;;;16.70;99.90;;;;;;2616032;54;20745;-76
2022/07/29 06:32:49;;;;;;;10.20;5.67;;;16.90;99.90;;;;;;2615943;54;20160;-77
2022/07/29 06:38:38;;;;;;;5.80;5.17;;;17.00;99.90;;;;;;2616695;54;20125;-76
2022/07/29 06:44:25;;;;;;;7.20;6.07;;;17.20;99.90;;;;;;2616776;54;20500;-77
2022/07/29 06:50:13;;;;;;;6.90;6.23;;;17.40;99.90;;;;;;2617876;54;20125;-76
2022/07/29 06:56:06;;;;;;;9.60;6.93;;;17.60;99.90;;;;;;2618694;54;20374;-77
2022/07/29 07:01:53;;;;;;;7.53;6.93;;;17.90;99.90;;;;;;2618047;54;20374;-76
2022/07/29 07:07:41;;;;;;;8.03;7.30;;;18.00;97.20;;;;;;2618172;54;20165;-76
2022/07/29 07:13:33;;;;;;;12.07;8.23;;;18.20;92.20;;;;;;2618702;54;20919;-77
2022/07/29 07:19:21;;;;;;;7.67;7.00;;;18.80;84.60;;;;;;2618789;54;20400;-78
2022/07/29 07:25:10;;;;;;;7.53;6.93;;;18.90;84.00;;;;;;2618460;54;20670;-78
2022/07/29 07:30:58;;;;;;;6.43;6.03;;;19.40;72.40;;;;;;2618255;54;20424;-78
2022/07/29 07:36:45;;;;;;;7.77;7.07;;;19.10;58.80;;;;;;2618965;54;20179;-78
2022/07/29 07:42:33;;;;;;;8.33;6.80;;;19.10;61.70;;;;;;2618347;54;20171;-78
2022/07/29 07:48:21;;;;;;;10.37;8.10;;;18.90;67.20;;;;;;2618459;54;20202;-78
2022/07/29 07:54:09;;;;;;;8.30;6.73;;;19.00;75.20;;;;;;2618884;54;20174;-79
2022/07/29 07:59:57;;;;;;;7.27;6.57;;;19.10;79.90;;;;;;2618221;54;21444;-79
2022/07/29 08:05:47;;;;;;;9.93;6.47;;;19.00;82.20;;;;;;2618847;54;20126;-79
2022/07/29 08:11:34;;;;;;;8.60;6.23;;;19.00;78.80;;;;;;2619064;39;20796;-78
2022/07/29 08:17:22;;;;;;;7.07;6.37;;;18.80;82.30;;;;;;2618847;54;20124;-78
2022/07/29 08:23:10;;;;;;;6.13;5.57;;;18.80;89.40;;;;;;2618720;39;20848;-79
2022/07/29 08:28:58;;;;;;;7.23;6.03;;;19.20;78.80;;;;;;2618363;54;20117;-80
2022/07/29 08:34:46;;;;;;;7.40;6.67;;;19.10;81.80;;;;;;2618583;54;20145;-79
2022/07/29 08:40:33;;;;;;;6.47;5.83;;;18.90;86.90;;;;;;2618155;54;20121;-78
2022/07/29 08:46:22;;;;;;;7.27;6.60;;;18.90;88.50;;;;;;2618299;54;20139;-79
2022/07/29 08:52:13;;;;;;;7.77;6.97;;;18.80;91.80;;;;;;2617980;54;20372;-78
2022/07/29 08:58:01;;;;;;;8.40;6.57;;;18.60;96.20;;;;;;2618257;54;20427;-78
2022/07/29 09:03:49;;;;;;;9.30;6.10;;;18.40;94.80;;;;;;2618527;54;20413;-78
2022/07/29 09:09:39;;;;;;;9.00;7.27;;;18.50;96.00;;;;;;2619048;39;20694;-77
2022/07/29 09:15:27;;;;;;;7.77;7.07;;;18.60;96.00;;;;;;2618572;54;20386;-78
2022/07/29 09:27:26;;;;;;;8.03;6.40;;;18.80;97.50;;;;;;2617896;54;20403;-78
2022/07/29 09:36:49;;;;;;;12.83;7.73;;;18.70;95.00;;;;;;2618137;54;20404;-78
2022/07/29 09:42:37;;;;;;;9.70;7.90;;;18.50;99.90;;;;;;2617913;54;20413;-78
2022/07/29 09:48:25;;;;;;;15.37;8.87;;;18.20;99.90;;;;;;2618417;54;21039;-79
2022/07/29 09:54:22;;;;;;;8.70;8.10;;;18.10;99.90;;;;;;2616903;39;20953;-79
2022/07/29 10:00:18;;;;;;;9.47;8.60;;;18.30;99.90;;;;;;2617122;54;20382;-78
2022/07/29 10:03:42;;;;;;;8.80;7.90;;;18.40;99.90;;;;;;2616581;47;20924;-78
2022/07/29 10:09:30;;;;;;;8.10;7.27;;;18.50;99.90;;;;;;2616536;54;20431;-78
2022/07/29 10:15:19;;;;;;;13.00;7.43;;;18.60;99.90;;;;;;2616313;54;20432;-78
2022/07/29 10:21:06;;;;;;;10.77;7.10;;;18.30;99.90;;;;;;2617505;54;20409;-77
2022/07/29 10:26:55;;;;;;;8.50;7.30;;;18.70;99.90;;;;;;2617837;39;20909;-78
2022/07/29 10:32:54;;;;;;;12.77;6.80;;;19.00;99.90;;;;;;2616665;54;20411;-79
2022/07/29 10:45:07;;;;;;;9.13;8.10;;;19.00;99.90;;;;;;2619047;39;21016;-78
2022/07/29 10:51:03;;;;;;;8.33;7.47;;;19.00;99.90;;;;;;2616605;54;20923;-78
2022/07/29 10:56:50;;;;;;;7.90;7.30;;;18.70;99.90;;;;;;2617270;54;20555;-79
2022/07/29 11:03:14;;;;;;;7.67;6.97;;;18.90;99.90;;;;;;2617144;54;20143;-79
2022/07/29 11:12:36;;;;;;;8.93;8.33;;;19.20;99.30;;;;;;2635182;36;20487;-78
2022/07/29 11:18:26;;;;;;;8.20;7.40;;;19.60;95.40;;;;;;2635487;36;20461;-79
2022/07/29 11:24:20;;;;;;;9.37;8.50;;;20.40;87.40;;;;;;2617471;39;21140;-78
2022/07/29 11:30:09;;;;;;;7.33;6.73;;;20.50;82.80;;;;;;2616899;54;20391;-78
2022/07/29 11:32:44;;;;;;;8.30;7.50;;;20.80;81.80;;;;;;2617033;54;20566;-78
2022/07/29 11:35:23;;;;;;;8.03;7.33;;;20.90;74.70;;;;;;2617459;39;20910;-79
2022/07/29 11:47:57;;;;;;;10.47;7.77;;;21.70;48.20;;;;;;2617026;54;20417;-78
2022/07/29 11:53:48;;;;;;;12.33;7.40;;;21.40;41.40;;;;;;2618097;54;20442;-78
2022/07/29 11:59:44;;;;;;;7.97;7.23;;;22.10;32.00;;;;;;2618155;54;20392;-78
2022/07/29 12:12:01;;;;;;;8.60;7.80;;;22.90;18.50;;;;;;2617954;54;20379;-78
2022/07/29 12:17:48;;;;;;;9.13;8.00;;;22.50;16.90;;;;;;2617283;54;21216;-79
2022/07/29 12:23:36;;;;;;;7.67;7.00;;;22.30;21.70;;;;;;2616814;54;20175;-79
2022/07/29 12:29:24;;;;;;;7.63;7.00;;;23.40;17.60;;;;;;2616768;54;20149;-78
2022/07/29 12:32:46;;;;;;;9.90;7.70;;;23.30;14.40;;;;;;2617003;54;20475;-79
2022/07/29 12:35:18;;;;;;;8.43;7.70;;;23.40;13.00;;;;;;2617372;46;20423;-79
2022/07/29 12:41:06;;;;;;;9.63;8.73;;;24.20;13.70;;;;;;2617491;54;20384;-79
2022/07/29 12:47:05;;;;;;;10.00;7.30;;;24.20;11.80;;;;;;2617251;54;20375;-79
2022/07/29 12:52:52;;;;;;;8.10;7.50;;;24.50;11.90;;;;;;2617294;39;20972;-79
2022/07/29 12:58:41;;;;;;;8.67;7.90;;;24.30;15.40;;;;;;2616820;54;20136;-79
2022/07/29 13:04:32;;;;;;;9.67;8.97;;;24.00;14.30;;;;;;2616709;54;20371;-79
2022/07/29 13:10:20;;;;;;;11.17;9.00;;;23.50;20.30;;;;;;2617059;54;20419;-79
2022/07/29 13:16:08;;;;;;;9.63;8.87;;;24.00;17.50;;;;;;2617824;54;20409;-79
2022/07/29 13:21:56;;;;;;;10.80;9.00;;;24.10;16.30;;;;;;2617922;54;20121;-79
2022/07/29 13:27:45;;;;;;;10.13;9.33;;;24.40;15.80;;;;;;2618525;54;20123;-79
2022/07/29 13:33:32;;;;;;;9.37;8.23;;;24.50;12.50;;;;;;2615807;54;20528;-79
2022/07/29 13:39:19;;;;;;;7.77;7.00;;;24.30;11.80;;;;;;2617114;54;20163;-79
2022/07/29 13:48:28;;;;;;;8.43;7.70;;;24.40;8.80;;;;;;2617099;54;20359;-79
2022/07/29 13:54:16;;;;;;;7.70;7.03;;;24.90;9.00;;;;;;2617266;54;20123;-79
2022/07/29 14:00:03;;;;;;;9.50;7.00;;;24.70;6.80;;;;;;2617046;54;20417;-80
2022/07/29 14:05:50;;;;;;;9.40;7.73;;;24.60;6.70;;;;;;2617828;54;20375;-79
2022/07/29 14:11:38;;;;;;;8.20;7.40;;;25.70;4.40;;;;;;2617264;54;20380;-79
2022/07/29 14:17:26;;;;;;;6.90;6.40;;;27.00;1.00;;;;;;2618655;54;20400;-79
2022/07/29 14:23:13;;;;;;;7.07;6.67;;;27.10;1.00;;;;;;2618875;54;20173;-78
2022/07/29 14:29:01;;;;;;;7.40;6.80;;;27.60;1.00;;;;;;2618681;54;20216;-79
2022/07/29 14:34:48;;;;;;;7.83;7.33;;;27.30;1.00;;;;;;2618958;54;20185;-79
2022/07/29 14:40:36;;;;;;;8.50;6.60;;;27.30;1.00;;;;;;2617915;54;20170;-79
2022/07/29 14:46:23;;;;;;;8.00;6.67;;;27.90;1.00;;;;;;2617725;54;20153;-78
2022/07/29 14:52:10;;;;;;;7.30;6.40;;;27.80;1.00;;;;;;2617551;54;20144;-79
2022/07/29 14:57:59;;;;;;;9.13;7.03;;;27.00;1.00;;;;;;2617157;54;20161;-79
2022/07/29 15:03:46;;;;;;;7.60;6.90;;;27.20;1.00;;;;;;2617398;54;20447;-79
2022/07/29 15:09:33;;;;;;;8.07;7.20;;;27.80;1.00;;;;;;2617642;54;20159;-79
2022/07/29 15:15:20;;;;;;;11.77;7.83;;;26.90;1.00;;;;;;2617603;54;20250;-79
2022/07/29 15:21:07;;;;;;;9.00;7.63;;;27.10;2.60;;;;;;2617094;54;20391;-79
2022/07/29 15:26:55;;;;;;;7.60;6.90;;;27.00;1.80;;;;;;2617184;54;20236;-79
2022/07/29 15:32:45;;;;;;;8.90;8.10;;;27.20;1.70;;;;;;2617113;54;20157;-79
2022/07/29 15:38:32;;;;;;;9.77;8.87;;;27.10;2.40;;;;;;2617401;54;20401;-79
2022/07/29 15:44:20;;;;;;;8.53;7.73;;;26.90;1.00;;;;;;2616045;54;20436;-79
2022/07/29 15:47:38;;;;;;;9.13;8.23;;;27.60;1.00;;;;;;2617420;39;20860;-79
2022/07/29 15:53:26;;;;;;;8.13;7.53;;;27.80;1.00;;;;;;2617622;54;20982;-80
2022/07/29 15:59:13;;;;;;;8.70;7.90;;;28.00;1.00;;;;;;2617845;54;20655;-79
2022/07/29 16:05:00;;;;;;;7.77;7.10;;;27.10;1.00;;;;;;2617471;54;20152;-79
2022/07/29 16:10:47;;;;;;;10.90;8.50;;;26.50;1.00;;;;;;2617818;39;20658;-78
2022/07/29 16:16:35;;;;;;;8.83;7.77;;;27.00;1.50;;;;;;2617000;39;21742;-79
2022/07/29 16:22:22;;;;;;;10.27;8.63;;;26.80;2.90;;;;;;2617364;54;20502;-80
2022/07/29 16:31:31;;;;;;;12.73;8.13;;;25.80;2.10;;;;;;2617052;54;20378;-79
2022/07/29 16:37:18;;;;;;;10.40;8.33;;;26.90;2.70;;;;;;2617595;54;20151;-79
2022/07/29 16:43:05;;;;;;;12.10;7.90;;;27.10;1.00;;;;;;2617461;54;20145;-80
2022/07/29 16:52:52;;;;;;;16.87;15.13;;;27.90;1.40;;;;;;2618716;54;20414;-79
2022/07/29 16:58:39;;;;;;;9.30;8.63;;;27.20;1.00;;;;;;2618772;54;20399;-79
2022/07/29 17:04:28;;;;;;;9.23;8.33;;;25.40;2.80;;;;;;2618521;54;20126;-80
2022/07/29 17:10:16;;;;;;;8.60;7.80;;;26.90;1.00;;;;;;2618633;54;20383;-79
2022/07/29 17:16:04;;;;;;;8.43;7.70;;;26.90;1.80;;;;;;2618298;54;20370;-79
2022/07/29 17:21:52;;;;;;;8.00;7.30;;;26.90;1.20;;;;;;2618592;54;20490;-79
2022/07/29 17:27:41;;;;;;;9.37;8.47;;;24.50;2.10;;;;;;2618922;54;20359;-78
2022/07/29 17:33:29;;;;;;;7.67;7.00;;;24.60;4.00;;;;;;2618926;54;20363;-78
2022/07/29 17:39:16;;;;;;;7.53;6.93;;;24.40;5.70;;;;;;2618941;54;20142;-78
2022/07/29 17:45:04;;;;;;;27.37;24.80;;;24.10;6.30;;;;;;2619170;54;20122;-78
2022/07/29 17:48:21;;;;;;;67.40;61.93;;;24.10;6.10;;;;;;2617621;47;22017;-79
2022/07/29 17:50:47;;;;;;;15.40;13.80;;;23.90;6.40;;;;;;2617106;54;20430;-78
2022/07/29 17:56:34;;;;;;;33.97;30.77;;;23.90;7.90;;;;;;2617738;54;20394;-78
2022/07/29 18:02:22;;;;;;;8.83;7.50;;;23.90;7.30;;;;;;2617816;39;20569;-79
2022/07/29 18:08:09;;;;;;;15.70;8.40;;;23.50;9.30;;;;;;2617486;54;20166;-78
2022/07/29 18:13:57;;;;;;;9.47;7.17;;;23.50;10.20;;;;;;2617214;54;20374;-79
2022/07/29 18:23:06;;;;;;;7.67;6.90;;;23.10;12.10;;;;;;2618268;31;20888;-80
2022/07/29 18:28:53;;;;;;;7.83;7.03;;;22.90;13.20;;;;;;2617347;54;20364;-79
2022/07/29 18:34:41;;;;;;;10.33;7.40;;;22.80;12.90;;;;;;2617681;54;20146;-79
2022/07/29 18:40:28;;;;;;;7.90;6.93;;;22.70;13.10;;;;;;2617516;54;20122;-79
2022/07/29 18:46:15;;;;;;;7.73;6.90;;;22.60;10.90;;;;;;2617741;54;20383;-79
2022/07/29 18:52:02;;;;;;;6.23;5.73;;;22.30;12.90;;;;;;2616425;54;20177;-79
2022/07/29 18:57:50;;;;;;;8.77;6.63;;;22.20;12.80;;;;;;2618049;54;20135;-79
2022/07/29 19:01:11;;;;;;;7.87;6.70;;;22.10;13.50;;;;;;2618115;46;20408;-80
2022/07/29 19:07:01;;;;;;;7.93;6.60;;;21.80;17.30;;;;;;2617145;54;20373;-79
2022/07/29 19:12:48;;;;;;;8.17;7.47;;;21.70;20.90;;;;;;2618417;54;20359;-79
2022/07/29 19:18:35;;;;;;;8.23;6.90;;;21.30;26.80;;;;;;2617808;54;20703;-79
2022/07/29 19:24:22;;;;;;;7.77;6.70;;;21.00;32.30;;;;;;2618041;54;20702;-79
2022/07/29 19:30:10;;;;;;;7.67;6.97;;;20.60;39.60;;;;;;2618951;39;20798;-79
2022/07/29 19:35:58;;;;;;;9.50;6.87;;;20.30;55.70;;;;;;2619382;54;20363;-79
2022/07/29 19:41:46;;;;;;;10.67;8.47;;;20.20;52.60;;;;;;2618945;54;20227;-79
2022/07/29 19:47:34;;;;;;;10.80;8.00;;;20.00;64.40;;;;;;2618465;54;20484;-79
2022/07/29 19:53:22;;;;;;;10.80;7.60;;;19.80;79.20;;;;;;2618902;39;20807;-78
2022/07/29 19:59:09;;;;;;;9.47;8.13;;;19.40;90.50;;;;;;2616143;54;20278;-77
2022/07/29 20:04:56;;;;;;;9.67;8.03;;;19.30;94.40;;;;;;2616476;39;20622;-78
2022/07/29 20:10:44;;;;;;;7.90;7.20;;;19.30;96.10;;;;;;2616982;54;20130;-78
2022/07/29 20:16:31;;;;;;;8.27;7.47;;;19.00;97.00;;;;;;2617584;54;20411;-78
2022/07/29 20:22:19;;;;;;;9.77;8.80;;;19.00;99.90;;;;;;2617004;54;20155;-79
2022/07/29 20:28:06;;;;;;;10.63;7.13;;;18.90;98.60;;;;;;2617528;54;20374;-79
2022/07/29 20:37:17;;;;;;;11.67;7.60;;;18.80;99.90;;;;;;2617254;39;21448;-77
2022/07/29 20:43:04;;;;;;;12.00;8.00;;;18.80;99.90;;;;;;2616789;54;20392;-77
2022/07/29 20:48:52;;;;;;;9.17;7.90;;;18.80;99.90;;;;;;2616552;54;20958;-79
2022/07/29 20:54:40;;;;;;;14.03;10.10;;;18.80;99.90;;;;;;2617673;54;20396;-78
2022/07/29 21:00:28;;;;;;;8.53;7.33;;;18.60;99.90;;;;;;2618377;54;20434;-77
2022/07/29 21:06:16;;;;;;;10.00;8.10;;;18.30;99.90;;;;;;2617497;54;20189;-78
2022/07/29 21:15:44;;;;;;;10.90;8.20;;;18.10;99.90;;;;;;2618019;39;20811;-78
2022/07/29 21:21:32;;;;;;;10.27;8.07;;;18.10;99.90;;;;;;2618586;54;20930;-78
2022/07/29 21:33:27;;;;;;;18.90;8.60;;;17.90;99.90;;;;;;2617910;54;20427;-78
2022/07/29 21:39:15;;;;;;;8.63;7.93;;;17.80;99.90;;;;;;2618559;54;20372;-78
2022/07/29 21:45:04;;;;;;;11.53;8.70;;;17.80;99.90;;;;;;2618471;54;20125;-78
2022/07/29 21:50:52;;;;;;;8.30;7.57;;;17.80;99.90;;;;;;2618054;54;20402;-78
2022/07/29 21:56:40;;;;;;;9.33;8.40;;;17.80;99.90;;;;;;2618306;54;20425;-78
2022/07/29 22:02:28;;;;;;;10.80;8.40;;;17.90;99.90;;;;;;2618127;39;20586;-77
2022/07/29 22:08:16;;;;;;;16.97;10.00;;;17.90;99.90;;;;;;2617840;54;20125;-78
2022/07/29 22:11:08;;;;;;;9.47;8.57;;;18.00;99.90;;;;;;2617398;47;20945;-78
2022/07/29 22:13:33;;;;;;;12.57;9.20;;;18.10;99.90;;;;;;2617265;47;20671;-78
2022/07/29 22:19:21;;;;;;;15.27;8.97;;;18.30;99.90;;;;;;2617259;54;20143;-77
2022/07/29 22:25:09;;;;;;;10.43;9.13;;;18.30;99.90;;;;;;2617370;54;20122;-78
2022/07/29 22:30:56;;;;;;;19.60;9.67;;;18.20;99.90;;;;;;2618722;31;20856;-78
2022/07/29 22:36:43;;;;;;;13.40;9.90;;;18.10;99.90;;;;;;2618093;54;20238;-78
2022/07/29 22:42:32;;;;;;;10.33;9.33;;;18.00;99.90;;;;;;2617742;39;20276;-78
2022/07/29 22:48:19;;;;;;;10.87;9.30;;;17.90;99.90;;;;;;2617106;54;20581;-77
2022/07/29 22:54:07;;;;;;;9.97;9.03;;;17.90;99.90;;;;;;2617721;54;20409;-78
2022/07/29 22:59:54;;;;;;;11.67;10.20;;;17.90;99.90;;;;;;2617376;54;20259;-78
2022/07/29 23:02:57;;;;;;;9.73;8.93;;;17.90;99.90;;;;;;2617886;39;20757;-78
2022/07/29 23:05:23;;;;;;;10.87;9.77;;;17.90;99.90;;;;;;2617153;54;20679;-78
2022/07/29 23:11:10;;;;;;;10.43;9.50;;;18.00;99.90;;;;;;2617478;54;20162;-77
2022/07/29 23:16:58;;;;;;;9.70;8.80;;;17.90;99.90;;;;;;2617000;54;20193;-78
2022/07/29 23:22:44;;;;;;;11.20;9.53;;;18.00;99.90;;;;;;2617301;54;20121;-77
2022/07/29 23:28:31;;;;;;;10.37;9.37;;;18.00;99.90;;;;;;2617019;54;20125;-78
2022/07/29 23:34:18;;;;;;;10.13;9.13;;;17.90;99.90;;;;;;2617726;54;20118;-78
2022/07/29 23:40:06;;;;;;;10.20;9.20;;;17.90;99.90;;;;;;2618983;46;20146;-78
2022/07/29 23:45:54;;;;;;;11.67;10.53;;;17.80;99.90;;;;;;2617717;54;20416;-78
2022/07/29 23:51:42;;;;;;;12.80;11.50;;;17.60;99.90;;;;;;2617041;54;20475;-78
2022/07/29 23:57:29;;;;;;;13.30;12.10;;;17.30;99.90;;;;;;2617549;54;20153;-78
